sensor_id;sensor_type;location;lat;lon;timestamp;P1;durP1;ratioP1;P2;durP2;ratioP2
16478;SDS011;8350;52.316;10.530;2024-02-26T00:00:10;0.30;;;0.30;;
16478;SDS011;8350;52.316;10.530;2024-02-26T00:02:37;0.55;;;0.40;;
16478;SDS011;8350;52.316;10.530;2024-02-26T00:05:05;0.43;;;0.43;;
16478;SDS011;8350;52.316;10.530;2024-02-26T00:07:33;0.55;;;0.55;;
16478;SDS011;8350;52.316;10.530;2024-02-26T00:10:04;1.33;;;1.30;;
16478;SDS011;8350;52.316;10.530;2024-02-26T00:12:32;0.73;;;0.65;;
16478;SDS011;8350;52.316;10.530;2024-02-26T00:15:00;0.15;;;0.15;;
16478;SDS011;8350;52.316;10.530;2024-02-26T00:17:27;0.73;;;0.73;;
16478;SDS011;8350;52.316;10.530;2024-02-26T00:19:54;0.73;;;0.68;;
16478;SDS011;8350;52.316;10.530;2024-02-26T00:22:20;0.73;;;0.73;;
16478;SDS011;8350;52.316;10.530;2024-02-26T00:24:48;0.40;;;0.40;;
16478;SDS011;8350;52.316;10.530;2024-02-26T00:27:15;0.50;;;0.50;;
16478;SDS011;8350;52.316;10.530;2024-02-26T00:29:42;0.40;;;0.40;;
16478;SDS011;8350;52.316;10.530;2024-02-26T00:32:10;0.50;;;0.50;;
16478;SDS011;8350;52.316;10.530;2024-02-26T00:34:37;0.40;;;0.40;;
16478;SDS011;8350;52.316;10.530;2024-02-26T00:37:04;0.30;;;0.30;;
16478;SDS011;8350;52.316;10.530;2024-02-26T00:39:33;0.30;;;0.30;;
16478;SDS011;8350;52.316;10.530;2024-02-26T00:42:00;0.40;;;0.40;;
16478;SDS011;8350;52.316;10.530;2024-02-26T00:44:29;0.60;;;0.60;;
16478;SDS011;8350;52.316;10.530;2024-02-26T00:46:57;0.85;;;0.85;;
16478;SDS011;8350;52.316;10.530;2024-02-26T00:49:28;0.63;;;0.63;;
16478;SDS011;8350;52.316;10.530;2024-02-26T00:51:55;0.40;;;0.40;;
16478;SDS011;8350;52.316;10.530;2024-02-26T00:54:22;0.22;;;0.22;;
16478;SDS011;8350;52.316;10.530;2024-02-26T00:56:49;0.40;;;0.40;;
16478;SDS011;8350;52.316;10.530;2024-02-26T00:59:16;0.57;;;0.50;;
16478;SDS011;8350;52.316;10.530;2024-02-26T01:01:43;0.80;;;0.80;;
16478;SDS011;8350;52.316;10.530;2024-02-26T01:04:10;0.50;;;0.50;;
16478;SDS011;8350;52.316;10.530;2024-02-26T01:06:39;0.40;;;0.40;;
16478;SDS011;8350;52.316;10.530;2024-02-26T01:09:05;0.50;;;0.50;;
16478;SDS011;8350;52.316;10.530;2024-02-26T01:11:33;0.75;;;0.75;;
16478;SDS011;8350;52.316;10.530;2024-02-26T01:14:00;1.02;;;1.02;;
16478;SDS011;8350;52.316;10.530;2024-02-26T01:16:28;1.15;;;0.35;;
16478;SDS011;8350;52.316;10.530;2024-02-26T01:18:57;0.40;;;0.40;;
16478;SDS011;8350;52.316;10.530;2024-02-26T01:21:23;0.43;;;0.43;;
16478;SDS011;8350;52.316;10.530;2024-02-26T01:23:56;0.52;;;0.52;;
16478;SDS011;8350;52.316;10.530;2024-02-26T01:26:22;0.63;;;0.63;;
16478;SDS011;8350;52.316;10.530;2024-02-26T01:28:52;0.65;;;0.65;;
16478;SDS011;8350;52.316;10.530;2024-02-26T01:31:20;0.63;;;0.63;;
16478;SDS011;8350;52.316;10.530;2024-02-26T01:33:47;0.40;;;0.40;;
16478;SDS011;8350;52.316;10.530;2024-02-26T01:36:13;0.52;;;0.52;;
16478;SDS011;8350;52.316;10.530;2024-02-26T01:38:40;0.30;;;0.30;;
16478;SDS011;8350;52.316;10.530;2024-02-26T01:41:09;0.40;;;0.40;;
16478;SDS011;8350;52.316;10.530;2024-02-26T01:43:36;0.32;;;0.32;;
16478;SDS011;8350;52.316;10.530;2024-02-26T01:46:03;0.70;;;0.70;;
16478;SDS011;8350;52.316;10.530;2024-02-26T01:48:31;0.52;;;0.52;;
16478;SDS011;8350;52.316;10.530;2024-02-26T01:50:58;0.45;;;0.45;;
16478;SDS011;8350;52.316;10.530;2024-02-26T01:53:29;0.73;;;0.73;;
16478;SDS011;8350;52.316;10.530;2024-02-26T01:55:56;0.40;;;0.40;;
16478;SDS011;8350;52.316;10.530;2024-02-26T01:58:24;0.60;;;0.60;;
16478;SDS011;8350;52.316;10.530;2024-02-26T02:00:51;1.00;;;0.70;;
16478;SDS011;8350;52.316;10.530;2024-02-26T02:03:18;0.40;;;0.40;;
16478;SDS011;8350;52.316;10.530;2024-02-26T02:05:45;0.30;;;0.30;;
16478;SDS011;8350;52.316;10.530;2024-02-26T02:08:12;1.17;;;0.70;;
16478;SDS011;8350;52.316;10.530;2024-02-26T02:10:42;0.65;;;0.65;;
16478;SDS011;8350;52.316;10.530;2024-02-26T02:13:12;0.63;;;0.63;;
16478;SDS011;8350;52.316;10.530;2024-02-26T02:15:41;0.40;;;0.40;;
16478;SDS011;8350;52.316;10.530;2024-02-26T02:18:08;0.63;;;0.63;;
16478;SDS011;8350;52.316;10.530;2024-02-26T02:20:36;0.60;;;0.60;;
16478;SDS011;8350;52.316;10.530;2024-02-26T02:23:03;0.88;;;0.88;;
16478;SDS011;8350;52.316;10.530;2024-02-26T02:25:30;0.65;;;0.65;;
16478;SDS011;8350;52.316;10.530;2024-02-26T02:27:57;2.28;;;0.70;;
16478;SDS011;8350;52.316;10.530;2024-02-26T02:30:25;0.50;;;0.50;;
16478;SDS011;8350;52.316;10.530;2024-02-26T02:32:54;0.32;;;0.32;;
16478;SDS011;8350;52.316;10.530;2024-02-26T02:35:23;0.40;;;0.40;;
16478;SDS011;8350;52.316;10.530;2024-02-26T02:37:51;0.70;;;0.70;;
16478;SDS011;8350;52.316;10.530;2024-02-26T02:40:19;0.68;;;0.45;;
16478;SDS011;8350;52.316;10.530;2024-02-26T02:42:46;0.35;;;0.35;;
16478;SDS011;8350;52.316;10.530;2024-02-26T02:45:12;0.38;;;0.38;;
16478;SDS011;8350;52.316;10.530;2024-02-26T02:47:39;0.55;;;0.55;;
16478;SDS011;8350;52.316;10.530;2024-02-26T02:50:06;0.40;;;0.40;;
16478;SDS011;8350;52.316;10.530;2024-02-26T02:52:34;0.32;;;0.32;;
16478;SDS011;8350;52.316;10.530;2024-02-26T02:55:02;0.50;;;0.50;;
16478;SDS011;8350;52.316;10.530;2024-02-26T02:57:30;0.43;;;0.43;;
16478;SDS011;8350;52.316;10.530;2024-02-26T02:59:57;0.68;;;0.50;;
16478;SDS011;8350;52.316;10.530;2024-02-26T03:02:24;0.60;;;0.60;;
16478;SDS011;8350;52.316;10.530;2024-02-26T03:04:51;0.73;;;0.73;;
16478;SDS011;8350;52.316;10.530;2024-02-26T03:07:18;0.35;;;0.35;;
16478;SDS011;8350;52.316;10.530;2024-02-26T03:09:45;0.35;;;0.35;;
16478;SDS011;8350;52.316;10.530;2024-02-26T03:12:14;1.00;;;0.98;;
16478;SDS011;8350;52.316;10.530;2024-02-26T03:14:41;0.75;;;0.75;;
16478;SDS011;8350;52.316;10.530;2024-02-26T03:17:08;0.38;;;0.38;;
16478;SDS011;8350;52.316;10.530;2024-02-26T03:19:37;0.60;;;0.60;;
16478;SDS011;8350;52.316;10.530;2024-02-26T03:22:06;0.68;;;0.68;;
16478;SDS011;8350;52.316;10.530;2024-02-26T03:24:33;0.40;;;0.40;;
16478;SDS011;8350;52.316;10.530;2024-02-26T03:27:00;0.45;;;0.45;;
16478;SDS011;8350;52.316;10.530;2024-02-26T03:29:29;0.43;;;0.43;;
16478;SDS011;8350;52.316;10.530;2024-02-26T03:31:56;1.23;;;0.85;;
16478;SDS011;8350;52.316;10.530;2024-02-26T03:34:23;0.30;;;0.30;;
16478;SDS011;8350;52.316;10.530;2024-02-26T03:36:50;0.50;;;0.50;;
16478;SDS011;8350;52.316;10.530;2024-02-26T03:39:17;0.70;;;0.70;;
16478;SDS011;8350;52.316;10.530;2024-02-26T03:41:44;0.30;;;0.30;;
16478;SDS011;8350;52.316;10.530;2024-02-26T03:44:11;0.70;;;0.70;;
16478;SDS011;8350;52.316;10.530;2024-02-26T03:46:40;0.35;;;0.35;;
16478;SDS011;8350;52.316;10.530;2024-02-26T03:49:07;0.73;;;0.73;;
16478;SDS011;8350;52.316;10.530;2024-02-26T03:51:35;0.45;;;0.45;;
16478;SDS011;8350;52.316;10.530;2024-02-26T03:54:02;0.93;;;0.93;;
16478;SDS011;8350;52.316;10.530;2024-02-26T03:56:29;0.22;;;0.22;;
16478;SDS011;8350;52.316;10.530;2024-02-26T03:58:56;0.40;;;0.40;;
16478;SDS011;8350;52.316;10.530;2024-02-26T04:01:24;0.52;;;0.52;;
16478;SDS011;8350;52.316;10.530;2024-02-26T04:03:53;0.60;;;0.55;;
16478;SDS011;8350;52.316;10.530;2024-02-26T04:06:21;0.40;;;0.40;;
16478;SDS011;8350;52.316;10.530;2024-02-26T04:08:48;0.60;;;0.43;;
16478;SDS011;8350;52.316;10.530;2024-02-26T04:11:14;0.82;;;0.82;;
16478;SDS011;8350;52.316;10.530;2024-02-26T04:13:43;0.50;;;0.50;;
16478;SDS011;8350;52.316;10.530;2024-02-26T04:16:11;0.57;;;0.57;;
16478;SDS011;8350;52.316;10.530;2024-02-26T04:18:40;0.40;;;0.40;;
16478;SDS011;8350;52.316;10.530;2024-02-26T04:21:09;0.50;;;0.50;;
16478;SDS011;8350;52.316;10.530;2024-02-26T04:23:35;0.30;;;0.30;;
16478;SDS011;8350;52.316;10.530;2024-02-26T04:26:02;0.50;;;0.50;;
16478;SDS011;8350;52.316;10.530;2024-02-26T04:28:31;0.60;;;0.60;;
16478;SDS011;8350;52.316;10.530;2024-02-26T04:30:59;0.75;;;0.52;;
16478;SDS011;8350;52.316;10.530;2024-02-26T04:33:26;0.55;;;0.55;;
16478;SDS011;8350;52.316;10.530;2024-02-26T04:35:53;0.65;;;0.65;;
16478;SDS011;8350;52.316;10.530;2024-02-26T04:38:22;1.55;;;0.77;;
16478;SDS011;8350;52.316;10.530;2024-02-26T04:40:49;1.00;;;1.00;;
16478;SDS011;8350;52.316;10.530;2024-02-26T04:43:16;0.47;;;0.47;;
16478;SDS011;8350;52.316;10.530;2024-02-26T04:45:44;1.13;;;0.93;;
16478;SDS011;8350;52.316;10.530;2024-02-26T04:48:11;0.32;;;0.32;;
16478;SDS011;8350;52.316;10.530;2024-02-26T04:50:38;0.65;;;0.47;;
16478;SDS011;8350;52.316;10.530;2024-02-26T04:53:05;0.80;;;0.80;;
16478;SDS011;8350;52.316;10.530;2024-02-26T04:55:33;3.38;;;0.82;;
16478;SDS011;8350;52.316;10.530;2024-02-26T04:58:00;0.80;;;0.80;;
16478;SDS011;8350;52.316;10.530;2024-02-26T05:00:27;0.68;;;0.68;;
16478;SDS011;8350;52.316;10.530;2024-02-26T05:02:56;1.38;;;1.27;;
16478;SDS011;8350;52.316;10.530;2024-02-26T05:05:23;1.00;;;1.00;;
16478;SDS011;8350;52.316;10.530;2024-02-26T05:07:50;0.50;;;0.50;;
16478;SDS011;8350;52.316;10.530;2024-02-26T05:10:19;1.48;;;1.23;;
16478;SDS011;8350;52.316;10.530;2024-02-26T05:12:48;0.70;;;0.70;;
16478;SDS011;8350;52.316;10.530;2024-02-26T05:15:17;0.43;;;0.40;;
16478;SDS011;8350;52.316;10.530;2024-02-26T05:17:44;0.90;;;0.90;;
16478;SDS011;8350;52.316;10.530;2024-02-26T05:20:11;0.80;;;0.80;;
16478;SDS011;8350;52.316;10.530;2024-02-26T05:22:38;0.70;;;0.70;;
16478;SDS011;8350;52.316;10.530;2024-02-26T05:25:05;0.90;;;0.90;;
16478;SDS011;8350;52.316;10.530;2024-02-26T05:27:33;1.00;;;1.00;;
16478;SDS011;8350;52.316;10.530;2024-02-26T05:30:01;1.88;;;1.77;;
16478;SDS011;8350;52.316;10.530;2024-02-26T05:32:28;1.13;;;0.50;;
16478;SDS011;8350;52.316;10.530;2024-02-26T05:34:56;0.30;;;0.30;;
16478;SDS011;8350;52.316;10.530;2024-02-26T05:37:21;0.70;;;0.70;;
16478;SDS011;8350;52.316;10.530;2024-02-26T05:39:49;0.63;;;0.63;;
16478;SDS011;8350;52.316;10.530;2024-02-26T05:42:16;1.42;;;0.55;;
16478;SDS011;8350;52.316;10.530;2024-02-26T05:44:43;0.85;;;0.70;;
16478;SDS011;8350;52.316;10.530;2024-02-26T05:47:11;0.70;;;0.70;;
16478;SDS011;8350;52.316;10.530;2024-02-26T05:49:38;1.20;;;1.10;;
16478;SDS011;8350;52.316;10.530;2024-02-26T05:52:05;0.30;;;0.30;;
16478;SDS011;8350;52.316;10.530;2024-02-26T05:54:32;0.82;;;0.80;;
16478;SDS011;8350;52.316;10.530;2024-02-26T05:56:59;1.70;;;1.60;;
16478;SDS011;8350;52.316;10.530;2024-02-26T05:59:27;0.98;;;0.80;;
16478;SDS011;8350;52.316;10.530;2024-02-26T06:01:54;2.20;;;1.00;;
16478;SDS011;8350;52.316;10.530;2024-02-26T06:04:27;1.08;;;0.75;;
16478;SDS011;8350;52.316;10.530;2024-02-26T06:06:54;0.47;;;0.47;;
16478;SDS011;8350;52.316;10.530;2024-02-26T06:09:22;1.80;;;1.20;;
16478;SDS011;8350;52.316;10.530;2024-02-26T06:11:51;1.05;;;0.52;;
16478;SDS011;8350;52.316;10.530;2024-02-26T06:14:21;1.50;;;1.35;;
16478;SDS011;8350;52.316;10.530;2024-02-26T06:16:49;1.33;;;1.23;;
16478;SDS011;8350;52.316;10.530;2024-02-26T06:19:16;1.10;;;0.95;;
16478;SDS011;8350;52.316;10.530;2024-02-26T06:21:44;0.82;;;0.82;;
16478;SDS011;8350;52.316;10.530;2024-02-26T06:24:11;0.77;;;0.77;;
16478;SDS011;8350;52.316;10.530;2024-02-26T06:26:38;0.85;;;0.85;;
16478;SDS011;8350;52.316;10.530;2024-02-26T06:29:05;0.73;;;0.65;;
16478;SDS011;8350;52.316;10.530;2024-02-26T06:31:32;0.55;;;0.55;;
16478;SDS011;8350;52.316;10.530;2024-02-26T06:33:59;1.30;;;1.20;;
16478;SDS011;8350;52.316;10.530;2024-02-26T06:36:26;0.60;;;0.60;;
16478;SDS011;8350;52.316;10.530;2024-02-26T06:38:54;0.73;;;0.73;;
16478;SDS011;8350;52.316;10.530;2024-02-26T06:41:21;0.90;;;0.90;;
16478;SDS011;8350;52.316;10.530;2024-02-26T06:43:52;2.13;;;1.38;;
16478;SDS011;8350;52.316;10.530;2024-02-26T06:46:19;1.55;;;1.45;;
16478;SDS011;8350;52.316;10.530;2024-02-26T06:48:47;2.30;;;1.10;;
16478;SDS011;8350;52.316;10.530;2024-02-26T06:51:14;2.20;;;1.45;;
16478;SDS011;8350;52.316;10.530;2024-02-26T06:53:41;0.70;;;0.70;;
16478;SDS011;8350;52.316;10.530;2024-02-26T06:56:10;1.83;;;1.65;;
16478;SDS011;8350;52.316;10.530;2024-02-26T06:58:36;2.28;;;1.60;;
16478;SDS011;8350;52.316;10.530;2024-02-26T07:01:03;1.23;;;1.20;;
16478;SDS011;8350;52.316;10.530;2024-02-26T07:03:30;1.70;;;1.60;;
16478;SDS011;8350;52.316;10.530;2024-02-26T07:05:58;2.30;;;2.13;;
16478;SDS011;8350;52.316;10.530;2024-02-26T07:08:25;1.48;;;1.38;;
16478;SDS011;8350;52.316;10.530;2024-02-26T07:10:52;1.45;;;1.35;;
16478;SDS011;8350;52.316;10.530;2024-02-26T07:13:20;1.67;;;1.48;;
16478;SDS011;8350;52.316;10.530;2024-02-26T07:15:49;1.67;;;1.58;;
16478;SDS011;8350;52.316;10.530;2024-02-26T07:18:22;2.08;;;1.52;;
16478;SDS011;8350;52.316;10.530;2024-02-26T07:20:49;4.43;;;1.85;;
16478;SDS011;8350;52.316;10.530;2024-02-26T07:23:16;2.83;;;2.63;;
16478;SDS011;8350;52.316;10.530;2024-02-26T07:25:43;1.83;;;1.58;;
16478;SDS011;8350;52.316;10.530;2024-02-26T07:28:12;1.70;;;1.60;;
16478;SDS011;8350;52.316;10.530;2024-02-26T07:30:40;1.65;;;1.38;;
16478;SDS011;8350;52.316;10.530;2024-02-26T07:33:07;1.20;;;1.10;;
16478;SDS011;8350;52.316;10.530;2024-02-26T07:35:34;2.20;;;1.27;;
16478;SDS011;8350;52.316;10.530;2024-02-26T07:38:03;1.00;;;1.00;;
16478;SDS011;8350;52.316;10.530;2024-02-26T07:40:31;1.80;;;1.70;;
16478;SDS011;8350;52.316;10.530;2024-02-26T07:42:58;2.15;;;2.05;;
16478;SDS011;8350;52.316;10.530;2024-02-26T07:45:25;2.45;;;1.92;;
16478;SDS011;8350;52.316;10.530;2024-02-26T07:47:53;2.05;;;1.70;;
16478;SDS011;8350;52.316;10.530;2024-02-26T07:50:20;1.48;;;1.38;;
16478;SDS011;8350;52.316;10.530;2024-02-26T07:52:47;1.90;;;1.80;;
16478;SDS011;8350;52.316;10.530;2024-02-26T07:55:16;1.75;;;1.50;;
16478;SDS011;8350;52.316;10.530;2024-02-26T07:57:45;1.50;;;1.40;;
16478;SDS011;8350;52.316;10.530;2024-02-26T08:00:13;1.95;;;1.77;;
16478;SDS011;8350;52.316;10.530;2024-02-26T08:02:43;1.25;;;1.15;;
16478;SDS011;8350;52.316;10.530;2024-02-26T08:05:11;2.58;;;2.03;;
16478;SDS011;8350;52.316;10.530;2024-02-26T08:07:39;1.02;;;1.02;;
16478;SDS011;8350;52.316;10.530;2024-02-26T08:10:07;1.75;;;1.52;;
16478;SDS011;8350;52.316;10.530;2024-02-26T08:12:34;2.15;;;2.00;;
16478;SDS011;8350;52.316;10.530;2024-02-26T08:15:01;1.80;;;1.70;;
16478;SDS011;8350;52.316;10.530;2024-02-26T08:17:28;2.13;;;1.38;;
16478;SDS011;8350;52.316;10.530;2024-02-26T08:19:55;1.67;;;1.58;;
16478;SDS011;8350;52.316;10.530;2024-02-26T08:22:24;1.35;;;1.25;;
16478;SDS011;8350;52.316;10.530;2024-02-26T08:24:53;2.58;;;1.63;;
16478;SDS011;8350;52.316;10.530;2024-02-26T08:27:20;2.33;;;1.65;;
16478;SDS011;8350;52.316;10.530;2024-02-26T08:29:47;1.63;;;1.52;;
16478;SDS011;8350;52.316;10.530;2024-02-26T08:32:14;1.50;;;1.20;;
16478;SDS011;8350;52.316;10.530;2024-02-26T08:34:41;1.48;;;1.38;;
16478;SDS011;8350;52.316;10.530;2024-02-26T08:37:08;1.88;;;1.77;;
16478;SDS011;8350;52.316;10.530;2024-02-26T08:39:37;1.42;;;1.33;;
16478;SDS011;8350;52.316;10.530;2024-02-26T08:42:04;3.50;;;1.50;;
16478;SDS011;8350;52.316;10.530;2024-02-26T08:44:31;2.28;;;2.08;;
16478;SDS011;8350;52.316;10.530;2024-02-26T08:47:01;2.05;;;1.85;;
16478;SDS011;8350;52.316;10.530;2024-02-26T08:49:28;1.63;;;1.52;;
16478;SDS011;8350;52.316;10.530;2024-02-26T08:51:56;1.67;;;1.38;;
16478;SDS011;8350;52.316;10.530;2024-02-26T08:54:26;1.60;;;1.50;;
16478;SDS011;8350;52.316;10.530;2024-02-26T08:56:54;1.33;;;1.10;;
16478;SDS011;8350;52.316;10.530;2024-02-26T08:59:21;1.33;;;1.25;;
16478;SDS011;8350;52.316;10.530;2024-02-26T09:01:51;1.20;;;1.10;;
16478;SDS011;8350;52.316;10.530;2024-02-26T09:04:19;1.98;;;1.42;;
16478;SDS011;8350;52.316;10.530;2024-02-26T09:06:47;2.17;;;1.90;;
16478;SDS011;8350;52.316;10.530;2024-02-26T09:09:14;1.27;;;1.17;;
16478;SDS011;8350;52.316;10.530;2024-02-26T09:11:41;1.63;;;1.40;;
16478;SDS011;8350;52.316;10.530;2024-02-26T09:14:09;1.45;;;1.20;;
16478;SDS011;8350;52.316;10.530;2024-02-26T09:16:36;1.50;;;1.38;;
16478;SDS011;8350;52.316;10.530;2024-02-26T09:19:03;1.05;;;0.95;;
16478;SDS011;8350;52.316;10.530;2024-02-26T09:21:31;1.63;;;1.05;;
16478;SDS011;8350;52.316;10.530;2024-02-26T09:23:58;1.90;;;1.80;;
16478;SDS011;8350;52.316;10.530;2024-02-26T09:26:25;1.75;;;1.15;;
16478;SDS011;8350;52.316;10.530;2024-02-26T09:28:52;1.35;;;1.08;;
16478;SDS011;8350;52.316;10.530;2024-02-26T09:31:21;1.40;;;1.30;;
16478;SDS011;8350;52.316;10.530;2024-02-26T09:33:47;1.08;;;0.98;;
16478;SDS011;8350;52.316;10.530;2024-02-26T09:36:14;1.80;;;1.42;;
16478;SDS011;8350;52.316;10.530;2024-02-26T09:38:42;1.83;;;0.98;;
16478;SDS011;8350;52.316;10.530;2024-02-26T09:41:10;1.58;;;1.15;;
16478;SDS011;8350;52.316;10.530;2024-02-26T09:43:41;1.25;;;1.13;;
16478;SDS011;8350;52.316;10.530;2024-02-26T09:46:11;1.05;;;1.02;;
16478;SDS011;8350;52.316;10.530;2024-02-26T09:48:43;1.33;;;1.10;;
16478;SDS011;8350;52.316;10.530;2024-02-26T09:51:11;1.52;;;1.20;;
16478;SDS011;8350;52.316;10.530;2024-02-26T09:53:38;1.27;;;1.17;;
16478;SDS011;8350;52.316;10.530;2024-02-26T09:56:10;1.05;;;0.95;;
16478;SDS011;8350;52.316;10.530;2024-02-26T09:58:40;0.93;;;0.93;;
16478;SDS011;8350;52.316;10.530;2024-02-26T10:01:11;1.48;;;1.33;;
16478;SDS011;8350;52.316;10.530;2024-02-26T10:03:44;1.42;;;1.30;;
16478;SDS011;8350;52.316;10.530;2024-02-26T10:06:14;2.22;;;1.05;;
16478;SDS011;8350;52.316;10.530;2024-02-26T10:08:42;1.33;;;1.00;;
16478;SDS011;8350;52.316;10.530;2024-02-26T10:11:10;1.60;;;1.40;;
16478;SDS011;8350;52.316;10.530;2024-02-26T10:13:37;2.80;;;1.90;;
16478;SDS011;8350;52.316;10.530;2024-02-26T10:16:04;1.25;;;1.10;;
16478;SDS011;8350;52.316;10.530;2024-02-26T10:18:46;1.48;;;1.38;;
16478;SDS011;8350;52.316;10.530;2024-02-26T10:21:13;2.08;;;1.65;;
16478;SDS011;8350;52.316;10.530;2024-02-26T10:23:43;1.48;;;1.38;;
16478;SDS011;8350;52.316;10.530;2024-02-26T10:26:10;1.48;;;1.25;;
16478;SDS011;8350;52.316;10.530;2024-02-26T10:28:39;1.35;;;1.25;;
16478;SDS011;8350;52.316;10.530;2024-02-26T10:31:06;2.30;;;1.60;;
16478;SDS011;8350;52.316;10.530;2024-02-26T10:33:33;1.55;;;1.45;;
16478;SDS011;8350;52.316;10.530;2024-02-26T10:36:03;2.55;;;1.42;;
16478;SDS011;8350;52.316;10.530;2024-02-26T10:38:31;1.70;;;1.50;;
16478;SDS011;8350;52.316;10.530;2024-02-26T10:40:59;1.98;;;1.63;;
16478;SDS011;8350;52.316;10.530;2024-02-26T10:43:27;1.70;;;1.55;;
16478;SDS011;8350;52.316;10.530;2024-02-26T10:45:54;2.97;;;1.73;;
16478;SDS011;8350;52.316;10.530;2024-02-26T10:48:22;2.58;;;1.50;;
16478;SDS011;8350;52.316;10.530;2024-02-26T10:50:52;1.83;;;1.58;;
16478;SDS011;8350;52.316;10.530;2024-02-26T10:53:26;1.65;;;1.42;;
16478;SDS011;8350;52.316;10.530;2024-02-26T10:55:58;2.08;;;1.60;;
16478;SDS011;8350;52.316;10.530;2024-02-26T10:58:28;2.47;;;2.28;;
16478;SDS011;8350;52.316;10.530;2024-02-26T11:00:56;2.72;;;1.92;;
16478;SDS011;8350;52.316;10.530;2024-02-26T11:03:24;3.90;;;2.42;;
16478;SDS011;8350;52.316;10.530;2024-02-26T11:05:51;2.13;;;1.92;;
16478;SDS011;8350;52.316;10.530;2024-02-26T11:08:21;1.95;;;1.75;;
16478;SDS011;8350;52.316;10.530;2024-02-26T11:10:52;2.83;;;1.77;;
16478;SDS011;8350;52.316;10.530;2024-02-26T11:13:22;2.53;;;1.55;;
16478;SDS011;8350;52.316;10.530;2024-02-26T11:15:55;1.80;;;1.70;;
16478;SDS011;8350;52.316;10.530;2024-02-26T11:18:26;3.05;;;1.95;;
16478;SDS011;8350;52.316;10.530;2024-02-26T11:20:54;2.35;;;1.80;;
16478;SDS011;8350;52.316;10.530;2024-02-26T11:23:24;2.78;;;2.58;;
16478;SDS011;8350;52.316;10.530;2024-02-26T11:25:53;3.40;;;2.33;;
16478;SDS011;8350;52.316;10.530;2024-02-26T11:28:24;3.17;;;2.22;;
16478;SDS011;8350;52.316;10.530;2024-02-26T11:30:54;2.35;;;2.05;;
16478;SDS011;8350;52.316;10.530;2024-02-26T11:33:27;3.03;;;2.83;;
16478;SDS011;8350;52.316;10.530;2024-02-26T11:35:54;3.03;;;2.47;;
16478;SDS011;8350;52.316;10.530;2024-02-26T11:38:25;2.83;;;2.08;;
16478;SDS011;8350;52.316;10.530;2024-02-26T11:40:57;3.15;;;2.60;;
16478;SDS011;8350;52.316;10.530;2024-02-26T11:46:26;2.20;;;1.70;;
16478;SDS011;8350;52.316;10.530;2024-02-26T11:48:56;3.83;;;2.17;;
16478;SDS011;8350;52.316;10.530;2024-02-26T11:51:28;2.45;;;2.15;;
16478;SDS011;8350;52.316;10.530;2024-02-26T11:53:59;2.38;;;1.88;;
16478;SDS011;8350;52.316;10.530;2024-02-26T11:56:33;5.43;;;2.65;;
16478;SDS011;8350;52.316;10.530;2024-02-26T11:59:03;2.47;;;2.28;;
16478;SDS011;8350;52.316;10.530;2024-02-26T12:01:44;2.42;;;2.22;;
16478;SDS011;8350;52.316;10.530;2024-02-26T12:04:14;3.83;;;3.00;;
16478;SDS011;8350;52.316;10.530;2024-02-26T12:06:49;3.63;;;2.60;;
16478;SDS011;8350;52.316;10.530;2024-02-26T12:09:30;4.05;;;2.72;;
16478;SDS011;8350;52.316;10.530;2024-02-26T12:11:58;3.30;;;2.60;;
16478;SDS011;8350;52.316;10.530;2024-02-26T12:14:27;2.85;;;2.38;;
16478;SDS011;8350;52.316;10.530;2024-02-26T12:16:54;3.55;;;2.50;;
16478;SDS011;8350;52.316;10.530;2024-02-26T12:19:23;2.47;;;2.00;;
16478;SDS011;8350;52.316;10.530;2024-02-26T12:21:51;4.65;;;2.95;;
16478;SDS011;8350;52.316;10.530;2024-02-26T12:24:20;3.17;;;2.60;;
16478;SDS011;8350;52.316;10.530;2024-02-26T12:26:47;4.57;;;3.20;;
16478;SDS011;8350;52.316;10.530;2024-02-26T12:29:15;4.30;;;3.72;;
16478;SDS011;8350;52.316;10.530;2024-02-26T12:31:45;3.85;;;2.55;;
16478;SDS011;8350;52.316;10.530;2024-02-26T12:34:20;4.70;;;3.15;;
16478;SDS011;8350;52.316;10.530;2024-02-26T12:36:47;2.80;;;2.60;;
16478;SDS011;8350;52.316;10.530;2024-02-26T12:39:14;3.88;;;3.15;;
16478;SDS011;8350;52.316;10.530;2024-02-26T12:41:41;4.13;;;3.13;;
16478;SDS011;8350;52.316;10.530;2024-02-26T12:44:15;2.97;;;2.70;;
16478;SDS011;8350;52.316;10.530;2024-02-26T12:46:42;3.33;;;2.95;;
16478;SDS011;8350;52.316;10.530;2024-02-26T12:49:17;7.28;;;3.20;;
16478;SDS011;8350;52.316;10.530;2024-02-26T12:51:43;3.40;;;3.08;;
16478;SDS011;8350;52.316;10.530;2024-02-26T12:54:13;6.53;;;3.47;;
16478;SDS011;8350;52.316;10.530;2024-02-26T12:56:40;3.30;;;2.70;;
16478;SDS011;8350;52.316;10.530;2024-02-26T12:59:09;3.35;;;3.05;;
16478;SDS011;8350;52.316;10.530;2024-02-26T13:01:41;3.65;;;3.33;;
16478;SDS011;8350;52.316;10.530;2024-02-26T13:04:08;3.78;;;2.78;;
16478;SDS011;8350;52.316;10.530;2024-02-26T13:06:38;3.85;;;2.92;;
16478;SDS011;8350;52.316;10.530;2024-02-26T13:09:08;3.85;;;3.22;;
16478;SDS011;8350;52.316;10.530;2024-02-26T13:11:44;3.78;;;2.92;;
16478;SDS011;8350;52.316;10.530;2024-02-26T13:14:18;3.75;;;2.60;;
16478;SDS011;8350;52.316;10.530;2024-02-26T13:16:55;3.45;;;2.75;;
16478;SDS011;8350;52.316;10.530;2024-02-26T13:19:22;3.35;;;2.75;;
16478;SDS011;8350;52.316;10.530;2024-02-26T13:21:49;3.28;;;2.90;;
16478;SDS011;8350;52.316;10.530;2024-02-26T13:24:16;3.53;;;2.58;;
16478;SDS011;8350;52.316;10.530;2024-02-26T13:26:45;3.38;;;3.08;;
16478;SDS011;8350;52.316;10.530;2024-02-26T13:29:16;4.03;;;3.63;;
16478;SDS011;8350;52.316;10.530;2024-02-26T13:31:43;3.75;;;2.95;;
16478;SDS011;8350;52.316;10.530;2024-02-26T13:34:23;3.05;;;2.50;;
16478;SDS011;8350;52.316;10.530;2024-02-26T13:36:52;3.28;;;2.92;;
16478;SDS011;8350;52.316;10.530;2024-02-26T13:39:22;5.90;;;3.78;;
16478;SDS011;8350;52.316;10.530;2024-02-26T13:41:50;2.97;;;2.67;;
16478;SDS011;8350;52.316;10.530;2024-02-26T13:44:17;3.25;;;2.95;;
16478;SDS011;8350;52.316;10.530;2024-02-26T13:46:44;5.95;;;3.75;;
16478;SDS011;8350;52.316;10.530;2024-02-26T13:49:11;4.40;;;3.63;;
16478;SDS011;8350;52.316;10.530;2024-02-26T13:51:40;3.42;;;3.13;;
16478;SDS011;8350;52.316;10.530;2024-02-26T13:54:07;3.60;;;2.97;;
16478;SDS011;8350;52.316;10.530;2024-02-26T13:56:35;4.43;;;3.42;;
16478;SDS011;8350;52.316;10.530;2024-02-26T13:59:02;4.32;;;3.45;;
16478;SDS011;8350;52.316;10.530;2024-02-26T14:01:30;4.38;;;3.33;;
16478;SDS011;8350;52.316;10.530;2024-02-26T14:03:58;3.47;;;3.17;;
16478;SDS011;8350;52.316;10.530;2024-02-26T14:06:29;4.40;;;3.33;;
16478;SDS011;8350;52.316;10.530;2024-02-26T14:09:01;4.85;;;3.55;;
16478;SDS011;8350;52.316;10.530;2024-02-26T14:11:29;3.58;;;3.28;;
16478;SDS011;8350;52.316;10.530;2024-02-26T14:13:58;4.57;;;3.55;;
16478;SDS011;8350;52.316;10.530;2024-02-26T14:16:28;4.72;;;3.92;;
16478;SDS011;8350;52.316;10.530;2024-02-26T14:18:58;4.38;;;3.92;;
16478;SDS011;8350;52.316;10.530;2024-02-26T14:21:30;3.63;;;3.30;;
16478;SDS011;8350;52.316;10.530;2024-02-26T14:23:56;4.60;;;3.75;;
16478;SDS011;8350;52.316;10.530;2024-02-26T14:26:25;4.35;;;3.47;;
16478;SDS011;8350;52.316;10.530;2024-02-26T14:28:52;3.78;;;3.33;;
16478;SDS011;8350;52.316;10.530;2024-02-26T14:31:20;4.22;;;3.05;;
16478;SDS011;8350;52.316;10.530;2024-02-26T14:33:47;3.92;;;3.35;;
16478;SDS011;8350;52.316;10.530;2024-02-26T14:36:18;3.65;;;2.97;;
16478;SDS011;8350;52.316;10.530;2024-02-26T14:38:45;3.53;;;2.60;;
16478;SDS011;8350;52.316;10.530;2024-02-26T14:41:12;3.88;;;2.90;;
16478;SDS011;8350;52.316;10.530;2024-02-26T14:43:45;5.90;;;4.00;;
16478;SDS011;8350;52.316;10.530;2024-02-26T14:46:12;4.82;;;3.50;;
16478;SDS011;8350;52.316;10.530;2024-02-26T14:48:39;5.82;;;3.13;;
16478;SDS011;8350;52.316;10.530;2024-02-26T14:51:06;3.53;;;2.83;;
16478;SDS011;8350;52.316;10.530;2024-02-26T14:53:33;4.25;;;3.63;;
16478;SDS011;8350;52.316;10.530;2024-02-26T14:56:00;3.60;;;3.30;;